Waverly, Georgia
Current Conditions -  °F | °C
As of 10:15 PM on Monday 26 Jan 2015 (Local Time) from KBQK Reporting Station
Scattered Clouds Scattered Clouds  
Wind Chill: 41°   Ceiling: Unl
Heat Index: 46°   Visibility: 10mi
Dew Point: 34°   Wind: 12mph
Humidity: 62%   Direction: 270°W
Pressure: 29.9"   Gusts: 16mph
Location:  31.1°N, 81.72°W
Report Text: KBQK 270315Z AUTO 27010G14KT 10SM SCT035 08/01 A2990 RMK AO1
Loading
Personal Weather Stations






























Interactive Weather Map New forecast layout! Learn more

10-Day Weather Forecast

Advertisements
Track Severe Weather on mobile